Time;durP1;ratioP1;P1;durP2;ratioP2;P2;SDS_P1;SDS_P2;PMS_P1;PMS_P2;Temp;Humidity;BMP_temperature;BMP_pressure;BME280_temperature;BME280_humidity;BME280_pressure;Samples;Min_cycle;Max_cycle;Signal;HPM_P1;HPM_P2
2021/07/18 00:01:05;;;;;;;4.50;3.10;;;;;;;21.36;75.89;100250.31;258472;1096;114312;-72
2021/07/18 00:06:10;;;;;;;3.80;3.40;;;;;;;21.34;75.46;100244.33;258619;1096;114802;-76
2021/07/18 00:11:13;;;;;;;5.08;3.18;;;;;;;21.31;75.51;100237.52;257746;1096;114675;-73
2021/07/18 00:16:15;;;;;;;4.27;3.50;;;;;;;21.27;75.79;100242.53;259884;1095;114666;-74
2021/07/18 00:21:20;;;;;;;4.53;3.45;;;;;;;21.14;75.85;100250.78;257520;1095;115122;-74
2021/07/18 00:26:23;;;;;;;4.10;3.48;;;;;;;20.94;76.01;100259.05;258183;1096;114941;-71
2021/07/18 00:31:25;;;;;;;3.50;3.20;;;;;;;20.92;76.83;100254.96;259100;1095;114637;-72
2021/07/18 00:36:32;;;;;;;3.33;3.05;;;;;;;20.93;77.04;100253.91;259166;1090;114658;-73
2021/07/18 00:41:38;;;;;;;5.35;3.40;;;;;;;20.88;78.22;100248.40;258246;1097;114915;-72
2021/07/18 00:46:40;;;;;;;3.60;3.30;;;;;;;20.79;78.04;100243.33;258460;1096;113205;-71
2021/07/18 00:57:02;;;;;;;6.67;3.63;;;;;;;20.88;77.41;100259.14;260777;1095;114116;-74
2021/07/18 01:02:09;;;;;;;5.23;4.13;;;;;;;20.81;77.33;100264.58;258440;1096;114368;-71
2021/07/18 01:07:15;;;;;;;4.98;4.13;;;;;;;20.84;77.37;100263.33;257228;1097;114469;-76
2021/07/18 01:12:21;;;;;;;4.30;3.90;;;;;;;20.71;78.07;100259.73;258502;1094;114547;-72
2021/07/18 01:17:23;;;;;;;6.13;4.33;;;;;;;20.70;78.26;100257.26;257533;1095;114469;-72
2021/07/18 01:22:29;;;;;;;4.33;3.93;;;;;;;20.90;77.77;100247.11;258571;1095;114766;-72
2021/07/18 01:27:39;;;;;;;5.85;5.23;;;;;;;20.98;78.04;100259.42;258462;1096;114420;-72
2021/07/18 01:32:42;;;;;;;5.13;4.63;;;;;;;21.10;77.56;100262.99;258551;1096;114445;-71
2021/07/18 01:37:44;;;;;;;5.38;4.88;;;;;;;21.08;77.68;100259.73;256578;1096;114326;-71
2021/07/18 01:42:46;;;;;;;8.28;5.33;;;;;;;20.91;78.61;100264.08;257072;1096;114824;-72
2021/07/18 01:47:49;;;;;;;10.43;9.33;;;;;;;20.86;79.11;100263.91;256746;1096;114527;-71
2021/07/18 01:52:56;;;;;;;5.30;4.83;;;;;;;20.96;78.62;100272.28;258861;1095;114513;-73
2021/07/18 01:58:03;;;;;;;5.60;5.03;;;;;;;20.86;78.95;100282.71;258440;1095;114257;-72
2021/07/18 02:03:10;;;;;;;5.60;5.10;;;;;;;20.81;78.89;100280.70;258036;1095;114360;-72
2021/07/18 02:08:19;;;;;;;5.50;4.93;;;;;;;20.71;79.29;100291.13;256923;1096;114496;-72
2021/07/18 02:13:21;;;;;;;5.30;4.70;;;;;;;20.73;79.53;100273.75;256817;1096;114544;-74
2021/07/18 02:18:25;;;;;;;5.80;5.30;;;;;;;20.70;80.03;100268.00;259633;1096;114456;-72
2021/07/18 02:23:31;;;;;;;7.05;5.78;;;;;;;20.77;79.79;100274.95;258766;1096;114460;-71
2021/07/18 02:28:35;;;;;;;6.30;5.70;;;;;;;20.74;80.08;100286.13;257356;1096;114923;-74
2021/07/18 02:33:42;;;;;;;6.13;5.63;;;;;;;20.69;80.30;100288.67;257724;1096;114975;-71
2021/07/18 02:38:45;;;;;;;9.08;6.95;;;;;;;20.68;80.89;100292.41;257676;1097;114830;-73
2021/07/18 02:43:47;;;;;;;7.87;7.00;;;;;;;20.75;80.35;100286.95;256018;1096;114788;-72
2021/07/18 02:54:03;;;;;;;8.20;7.40;;;;;;;20.80;80.46;100284.44;258304;1095;113334;-76
2021/07/18 02:59:09;;;;;;;8.53;7.73;;;;;;;20.69;81.23;100277.92;258251;1096;114040;-74
2021/07/18 03:04:11;;;;;;;8.93;7.78;;;;;;;20.53;81.89;100284.69;257790;1096;114333;-73
2021/07/18 03:09:13;;;;;;;8.78;7.90;;;;;;;20.61;82.05;100280.91;258035;1097;115055;-78
2021/07/18 03:14:16;;;;;;;9.78;8.50;;;;;;;20.73;81.79;100289.05;257280;1096;115107;-72
2021/07/18 03:19:18;;;;;;;9.30;8.40;;;;;;;20.79;81.50;100283.62;256989;1097;114895;-73
2021/07/18 03:24:28;;;;;;;9.68;8.38;;;;;;;20.68;81.81;100291.59;257657;1097;114393;-73
2021/07/18 03:29:30;;;;;;;11.43;9.67;;;;;;;20.65;81.93;100298.21;257463;1096;114502;-71
2021/07/18 03:34:33;;;;;;;9.03;7.93;;;;;;;20.69;82.20;100293.22;256354;1096;115250;-72
2021/07/18 03:39:38;;;;;;;11.70;8.15;;;;;;;20.74;81.85;100307.62;257519;1095;114620;-76
2021/07/18 03:44:42;;;;;;;8.53;7.68;;;;;;;20.69;82.29;100315.53;257722;1095;114559;-76
2021/07/18 03:49:44;;;;;;;9.30;8.40;;;;;;;20.67;82.25;100317.59;259184;1096;114442;-76
2021/07/18 03:54:46;;;;;;;8.95;8.10;;;;;;;20.52;83.09;100312.59;257381;1095;114472;-73
2021/07/18 03:59:48;;;;;;;10.75;7.88;;;;;;;20.63;82.29;100313.71;259373;1096;114980;-73
2021/07/18 04:04:54;;;;;;;10.98;8.58;;;;;;;20.66;82.50;100320.52;257308;1095;114482;-73
2021/07/18 04:09:57;;;;;;;9.18;8.15;;;;;;;20.74;82.49;100317.55;259146;1096;114471;-75
2021/07/18 04:14:59;;;;;;;9.93;8.90;;;;;;;20.83;82.47;100323.44;258869;1096;114043;-72
2021/07/18 04:20:02;;;;;;;10.60;8.95;;;;;;;20.78;83.06;100319.56;257088;1097;114927;-72
2021/07/18 04:25:07;;;;;;;16.18;11.00;;;;;;;20.83;82.90;100318.07;257206;1096;115268;-76
2021/07/18 04:30:12;;;;;;;12.75;9.88;;;;;;;20.83;83.13;100315.38;256549;1095;115121;-77
2021/07/18 04:35:14;;;;;;;11.10;9.93;;;;;;;20.96;82.99;100320.64;257598;1096;114572;-72
2021/07/18 04:45:28;;;;;;;14.53;10.80;;;;;;;21.04;83.05;100328.41;257990;1095;115021;-74
2021/07/18 04:50:33;;;;;;;16.15;13.75;;;;;;;21.12;83.09;100320.05;259653;1095;114306;-72
2021/07/18 04:55:41;;;;;;;14.68;11.73;;;;;;;21.15;83.08;100319.60;258238;1096;114950;-73
2021/07/18 05:00:43;;;;;;;15.75;11.45;;;;;;;21.18;83.42;100324.53;257377;1096;115028;-75
2021/07/18 05:05:45;;;;;;;15.25;11.35;;;;;;;21.26;83.29;100316.16;257645;1096;114960;-75
2021/07/18 05:10:50;;;;;;;16.40;12.38;;;;;;;21.37;83.46;100324.53;259352;1095;115313;-71
2021/07/18 05:15:52;;;;;;;12.90;11.60;;;;;;;21.51;82.78;100317.95;257026;1095;115011;-72
2021/07/18 05:20:57;;;;;;;14.20;12.73;;;;;;;21.54;82.33;100330.95;257017;1096;114858;-72
2021/07/18 05:26:03;;;;;;;14.73;12.97;;;;;;;21.51;82.77;100323.33;258745;1095;114767;-74
2021/07/18 05:31:05;;;;;;;14.55;12.58;;;;;;;21.41;83.16;100318.47;257890;1097;114662;-72
2021/07/18 05:36:11;;;;;;;14.20;12.90;;;;;;;21.41;83.13;100328.41;258003;1095;114727;-70
2021/07/18 05:41:13;;;;;;;14.08;12.28;;;;;;;21.39;83.24;100331.34;257982;1096;115056;-71
2021/07/18 05:46:15;;;;;;;14.65;12.83;;;;;;;21.47;82.93;100346.34;257337;1095;115384;-74
2021/07/18 05:51:20;;;;;;;14.60;13.10;;;;;;;21.52;82.51;100341.92;257378;1095;115233;-71
2021/07/18 05:56:23;;;;;;;12.40;11.28;;;;;;;21.51;82.88;100336.78;257421;1095;116168;-74
2021/07/18 06:01:25;;;;;;;12.95;11.43;;;;;;;21.58;82.34;100334.83;257029;1096;115424;-71
2021/07/18 06:06:27;;;;;;;12.40;11.13;;;;;;;21.58;82.17;100339.39;256197;1096;115104;-73
2021/07/18 06:11:29;;;;;;;13.38;11.98;;;;;;;21.63;82.42;100329.58;256075;1096;115045;-71
2021/07/18 06:16:32;;;;;;;12.00;10.80;;;;;;;21.62;81.88;100325.26;256187;1096;114863;-73
2021/07/18 06:21:34;;;;;;;12.58;11.43;;;;;;;21.72;82.15;100324.70;256427;1096;115017;-73
2021/07/18 06:26:36;;;;;;;12.43;10.97;;;;;;;21.60;82.20;100321.95;256457;1095;114795;-72
2021/07/18 06:31:39;;;;;;;13.15;11.88;;;;;;;21.68;81.68;100329.71;256372;1096;114759;-73
2021/07/18 06:36:41;;;;;;;13.90;11.73;;;;;;;21.77;81.45;100322.17;257101;1096;114856;-71
2021/07/18 06:41:43;;;;;;;14.38;12.88;;;;;;;21.82;80.96;100329.55;257379;1096;114971;-73
2021/07/18 06:46:47;;;;;;;13.63;12.40;;;;;;;21.71;80.96;100334.64;257004;1096;115117;-75
2021/07/18 06:51:49;;;;;;;14.55;12.83;;;;;;;21.75;80.96;100325.06;258430;1095;115519;-71
2021/07/18 06:56:52;;;;;;;15.28;13.28;;;;;;;21.74;81.33;100336.07;258429;1095;115452;-72
2021/07/18 07:01:57;;;;;;;13.43;12.08;;;;;;;21.72;80.77;100333.59;257967;1096;115111;-75
2021/07/18 07:07:07;;;;;;;12.73;11.53;;;;;;;21.87;80.64;100337.75;259456;1095;115225;-74
2021/07/18 07:12:17;;;;;;;13.60;11.30;;;;;;;21.78;80.75;100339.94;259798;1095;115720;-71
2021/07/18 07:17:22;;;;;;;13.33;11.87;;;;;;;21.81;81.17;100349.44;258397;1095;115215;-75
2021/07/18 07:22:26;;;;;;;12.08;10.85;;;;;;;21.80;80.48;100347.77;258250;1095;114759;-75
2021/07/18 07:27:28;;;;;;;;;;;;;;;21.85;80.35;100361.39;258196;1095;114101;-72
2021/07/18 07:37:43;;;;;;;12.28;10.90;;;;;;;21.64;80.93;100366.18;258677;1090;113889;-77
2021/07/18 07:42:46;;;;;;;15.33;12.18;;;;;;;21.73;80.39;100362.16;257533;1096;115325;-74
2021/07/18 07:47:52;;;;;;;13.20;11.93;;;;;;;21.71;80.13;100361.55;257152;1097;115537;-75
2021/07/18 07:58:04;;;;;;;15.08;10.18;;;;;;;21.85;80.09;100372.15;258847;1095;115384;-73
2021/07/18 08:08:29;;;;;;;12.15;10.83;;;;;;;21.75;79.19;100373.48;260117;1095;103013;-72
2021/07/18 08:13:31;;;;;;;11.98;10.78;;;;;;;21.91;78.86;100368.53;258065;1095;114643;-72
2021/07/18 08:18:34;;;;;;;10.78;9.78;;;;;;;22.03;78.27;100362.13;259423;1095;114500;-73
2021/07/18 08:23:36;;;;;;;10.50;9.45;;;;;;;22.16;77.64;100363.05;259207;1095;114563;-73
2021/07/18 08:28:40;;;;;;;10.38;9.38;;;;;;;22.14;78.10;100365.13;258266;1096;114681;-73
2021/07/18 08:33:46;;;;;;;10.55;9.48;;;;;;;22.16;77.50;100369.25;258979;1096;114459;-74
2021/07/18 08:38:49;;;;;;;10.30;9.30;;;;;;;22.32;77.72;100372.33;259622;1095;114754;-72
2021/07/18 08:43:51;;;;;;;12.85;9.40;;;;;;;22.29;77.10;100375.48;258617;1096;114499;-74
2021/07/18 08:48:56;;;;;;;8.98;8.23;;;;;;;22.24;77.34;100374.30;256890;1096;115647;-74
2021/07/18 08:54:04;;;;;;;10.30;9.30;;;;;;;22.46;77.31;100363.78;257823;1095;115412;-72
2021/07/18 08:59:08;;;;;;;9.17;8.27;;;;;;;22.56;76.96;100367.80;258366;1095;115546;-73
2021/07/18 09:04:11;;;;;;;;;;;;;;;22.58;77.12;100371.06;257191;1096;114888;-74
2021/07/18 09:09:21;;;;;;;10.15;9.30;;;;;;;22.72;75.43;100367.92;257189;1096;104384;-72
2021/07/18 09:14:23;;;;;;;10.08;8.65;;;;;;;22.84;75.24;100375.20;257404;1096;115629;-73
2021/07/18 09:19:30;;;;;;;12.80;9.58;;;;;;;22.90;74.64;100379.66;256131;1096;115733;-71
2021/07/18 09:24:35;;;;;;;9.28;8.38;;;;;;;23.01;74.20;100369.94;257056;1096;114634;-72
2021/07/18 09:29:55;;;;;;;11.13;8.83;;;;;;;23.24;73.12;100372.61;257349;1096;115254;-73
2021/07/18 09:35:05;;;;;;;9.60;8.70;;;;;;;23.30;72.64;100368.16;258140;1095;115659;-75
2021/07/18 09:40:18;;;;;;;10.53;8.93;;;;;;;23.48;72.37;100365.28;257068;1096;115644;-72
2021/07/18 09:45:23;;;;;;;8.70;8.00;;;;;;;23.73;71.19;100366.91;257103;1095;115810;-73
2021/07/18 09:50:27;;;;;;;12.07;8.03;;;;;;;23.38;72.81;100371.30;257610;1095;114531;-73
2021/07/18 09:55:29;;;;;;;;;;;;;;;23.40;71.79;100366.48;257308;1096;116049;-73
2021/07/18 10:00:42;;;;;;;8.55;7.75;;;;;;;23.68;71.53;100360.34;257859;1095;103137;-74
2021/07/18 10:05:45;;;;;;;7.95;7.10;;;;;;;23.63;72.34;100365.59;257272;1096;115369;-74
2021/07/18 10:10:48;;;;;;;9.48;7.53;;;;;;;23.63;71.87;100368.29;258357;1096;114675;-76
2021/07/18 10:15:50;;;;;;;7.98;7.25;;;;;;;23.59;71.50;100364.44;257568;1096;114848;-73
2021/07/18 10:20:53;;;;;;;9.48;8.60;;;;;;;24.07;70.12;100360.53;258552;1095;115326;-73
2021/07/18 10:25:59;;;;;;;7.83;7.20;;;;;;;24.43;68.17;100363.88;257986;1096;114317;-71
2021/07/18 10:31:04;;;;;;;8.13;7.43;;;;;;;24.14;68.84;100352.25;257116;1095;115586;-71
2021/07/18 10:36:09;;;;;;;8.15;7.35;;;;;;;24.29;69.08;100346.30;257886;1096;115798;-73
2021/07/18 10:41:13;;;;;;;7.05;6.35;;;;;;;24.44;67.68;100352.80;257655;1095;114540;-74
2021/07/18 10:46:35;;;;;;;;;;;;;;;24.60;67.19;100345.76;257620;1096;115779;-77
2021/07/18 10:51:50;;;;;;;9.23;8.30;;;;;;;24.49;68.47;100343.95;258070;1096;102993;-73
2021/07/18 10:56:57;;;;;;;8.75;7.93;;;;;;;24.29;67.95;100343.60;258656;1094;118141;-73
2021/07/18 11:02:11;;;;;;;9.30;8.40;;;;;;;24.41;67.37;100342.48;257380;1096;115051;-74
2021/07/18 11:07:34;;;;;;;6.70;6.20;;;;;;;25.26;63.90;100326.16;258164;1095;114276;-72
2021/07/18 11:12:46;;;;;;;6.50;6.00;;;;;;;25.54;64.75;100323.23;258197;1095;114673;-73
2021/07/18 11:17:58;;;;;;;7.13;6.18;;;;;;;25.83;62.43;100310.33;257421;1096;114482;-72
2021/07/18 11:23:08;;;;;;;6.23;5.73;;;;;;;26.00;61.04;100315.62;257931;1095;114397;-74
2021/07/18 11:28:32;;;;;;;6.70;6.08;;;;;;;26.46;60.28;100307.91;257493;1096;114279;-76
2021/07/18 11:33:55;;;;;;;6.23;5.23;;;;;;;26.41;59.68;100315.97;258339;1095;114475;-73
2021/07/18 11:39:13;;;;;;;5.23;4.93;;;;;;;26.70;57.64;100302.09;258219;1095;114583;-72
2021/07/18 11:44:17;;;;;;;5.60;5.05;;;;;;;26.92;57.67;100296.53;257082;1096;114381;-73
2021/07/18 11:49:19;;;;;;;6.18;5.60;;;;;;;26.86;56.25;100306.52;256853;1096;115609;-74
2021/07/18 11:54:22;;;;;;;6.65;6.05;;;;;;;26.72;57.97;100299.92;257014;1096;114807;-74
2021/07/18 11:59:25;;;;;;;6.07;5.47;;;;;;;26.59;57.21;100291.17;257449;1096;114540;-74
2021/07/18 12:04:28;;;;;;;6.00;5.58;;;;;;;26.42;56.81;100290.50;257574;1095;114280;-73
2021/07/18 12:09:37;;;;;;;6.03;5.15;;;;;;;26.18;58.44;100292.76;257034;1095;114438;-74
2021/07/18 12:14:42;;;;;;;5.70;5.20;;;;;;;26.17;59.63;100298.42;256016;1096;827892;-75
2021/07/18 12:19:46;;;;;;;7.27;6.40;;;;;;;26.12;57.76;100281.05;256708;1096;192945;-73
2021/07/18 12:24:53;;;;;;;6.90;6.30;;;;;;;26.53;56.69;100280.58;256828;1096;114538;-73
2021/07/18 12:29:58;;;;;;;7.30;6.80;;;;;;;26.30;56.99;100276.32;257154;1096;114688;-72
2021/07/18 12:35:01;;;;;;;7.58;6.88;;;;;;;26.26;56.80;100277.92;258009;1096;115267;-72
2021/07/18 12:40:08;;;;;;;6.40;5.80;;;;;;;26.40;55.25;100270.95;257931;1097;114439;-72
2021/07/18 12:45:15;;;;;;;6.48;5.88;;;;;;;26.43;54.87;100280.47;257566;1095;114330;-76
2021/07/18 12:50:27;;;;;;;5.75;5.28;;;;;;;26.25;56.51;100281.68;258870;1097;114950;-73
2021/07/18 12:55:32;;;;;;;6.13;5.63;;;;;;;26.36;53.89;100265.23;259571;1095;114837;-73
2021/07/18 13:00:35;;;;;;;5.98;5.48;;;;;;;26.38;54.47;100267.70;259209;1096;115364;-75
2021/07/18 13:05:42;;;;;;;8.23;6.23;;;;;;;26.22;54.50;100257.84;257549;1096;114861;-77
2021/07/18 13:10:49;;;;;;;7.48;6.88;;;;;;;26.12;55.46;100259.38;259025;1096;114347;-75
2021/07/18 13:16:10;;;;;;;7.50;6.70;;;;;;;26.21;56.92;100258.89;257709;1096;114408;-75
2021/07/18 13:21:18;;;;;;;14.85;9.18;;;;;;;26.08;55.53;100260.97;259649;1096;114543;-76
2021/07/18 13:26:55;;;;;;;8.97;8.00;;;;;;;26.28;55.05;100251.37;258678;1096;114669;-74
2021/07/18 13:32:10;;;;;;;7.83;6.38;;;;;;;26.17;53.66;100244.23;258891;1098;114744;-73
2021/07/18 13:37:15;;;;;;;6.38;5.78;;;;;;;26.03;53.45;100239.27;258127;1100;114348;-74
2021/07/18 13:42:33;;;;;;;8.20;7.40;;;;;;;25.88;53.73;100244.56;258323;1098;114359;-74
2021/07/18 13:52:48;;;;;;;9.48;8.20;;;;;;;25.79;53.89;100238.00;260012;1094;114257;-76
2021/07/18 13:57:53;;;;;;;6.20;5.75;;;;;;;26.21;53.70;100226.39;257983;1096;114513;-77
2021/07/18 14:02:56;;;;;;;11.23;10.13;;;;;;;26.57;50.78;100228.28;257724;1095;114701;-73
2021/07/18 14:07:58;;;;;;;6.40;5.80;;;;;;;26.52;52.44;100225.52;259452;1096;114842;-75
2021/07/18 14:18:13;;;;;;;7.35;6.75;;;;;;;26.13;54.25;100212.28;261200;1090;113782;-78
2021/07/18 14:23:15;;;;;;;8.33;6.60;;;;;;;25.91;56.77;100214.27;258745;1097;114419;-74
2021/07/18 14:28:18;;;;;;;7.17;6.47;;;;;;;26.09;56.98;100213.84;258529;1097;114651;-73
2021/07/18 14:33:21;;;;;;;7.33;6.68;;;;;;;26.38;56.68;100208.09;258975;1097;114878;-75
2021/07/18 14:38:23;;;;;;;7.63;6.80;;;;;;;26.61;54.93;100196.86;259034;1095;114485;-74
2021/07/18 14:43:25;;;;;;;7.08;6.48;;;;;;;26.34;54.33;100190.72;260190;1095;114217;-74
2021/07/18 14:48:28;;;;;;;7.00;6.38;;;;;;;26.33;55.97;100189.91;260260;1096;114750;-75
2021/07/18 14:53:34;;;;;;;7.68;6.98;;;;;;;26.09;56.95;100189.47;257902;1095;114515;-75
2021/07/18 15:03:51;;;;;;;7.10;6.50;;;;;;;26.26;56.54;100183.91;258885;1096;114155;-74
2021/07/18 15:08:53;;;;;;;7.30;6.70;;;;;;;26.33;56.24;100183.65;258240;1096;114986;-76
2021/07/18 15:13:57;;;;;;;7.18;6.53;;;;;;;26.55;54.52;100194.38;257874;1096;114285;-72
2021/07/18 15:19:07;;;;;;;8.25;7.55;;;;;;;26.76;53.96;100187.14;258023;1096;114999;-74
2021/07/18 15:24:10;;;;;;;9.68;8.75;;;;;;;26.61;55.21;100199.57;257913;1096;114389;-73
2021/07/18 15:29:18;;;;;;;9.93;9.13;;;;;;;26.38;54.16;100202.67;257888;1095;114274;-73
2021/07/18 15:34:20;;;;;;;10.15;9.28;;;;;;;26.56;53.52;100194.10;258038;1096;114326;-73
2021/07/18 15:39:22;;;;;;;8.95;8.20;;;;;;;27.06;52.23;100189.15;257496;1096;114692;-71
2021/07/18 15:44:25;;;;;;;8.25;7.65;;;;;;;27.26;50.92;100185.70;257067;1096;114467;-73
2021/07/18 15:49:33;;;;;;;;;;;;;;;27.73;48.72;100195.52;257157;1095;115636;-75
2021/07/18 15:54:38;;;;;;;8.60;7.78;;;;;;;28.40;47.96;100188.98;256200;1096;713552;-73
2021/07/18 15:59:40;;;;;;;8.40;7.60;;;;;;;28.65;47.61;100189.98;257162;1096;114769;-75
2021/07/18 16:04:43;;;;;;;7.20;6.70;;;;;;;28.30;48.18;100194.41;257173;1095;114821;-75
2021/07/18 16:09:45;;;;;;;8.07;7.47;;;;;;;27.51;50.92;100206.66;256202;1096;114501;-71
2021/07/18 16:14:47;;;;;;;8.88;8.03;;;;;;;27.04;52.86;100200.28;257497;1096;114245;-74
2021/07/18 16:19:53;;;;;;;8.03;7.30;;;;;;;26.86;51.29;100203.47;257612;1096;114876;-73
2021/07/18 16:24:59;;;;;;;11.65;10.70;;;;;;;26.72;49.81;100199.59;256867;1096;114622;-70
2021/07/18 16:30:04;;;;;;;9.17;8.23;;;;;;;26.56;51.95;100206.84;256674;1096;114825;-75
2021/07/18 16:35:11;;;;;;;9.05;8.35;;;;;;;26.53;50.21;100216.34;257605;1096;114699;-73
2021/07/18 16:40:16;;;;;;;8.00;7.40;;;;;;;26.45;50.38;100200.58;257559;1095;114794;-73
2021/07/18 16:45:18;;;;;;;9.43;8.63;;;;;;;26.28;52.02;100210.72;257210;1096;114569;-72
2021/07/18 16:50:20;;;;;;;8.17;7.50;;;;;;;25.97;52.75;100206.98;256371;1096;114902;-72
2021/07/18 16:55:22;;;;;;;9.10;8.40;;;;;;;25.94;52.69;100199.38;257520;1096;119066;-74
2021/07/18 17:00:26;;;;;;;9.00;8.30;;;;;;;25.99;52.08;100191.31;256688;1095;114422;-75
2021/07/18 17:05:32;;;;;;;7.63;7.03;;;;;;;25.90;51.27;100191.80;256097;1096;114885;-76
2021/07/18 17:10:36;;;;;;;7.38;6.65;;;;;;;25.91;51.62;100203.44;256997;1096;114791;-73
2021/07/18 17:15:39;;;;;;;7.35;6.65;;;;;;;25.86;51.18;100201.51;257092;1096;115018;-60
2021/07/18 17:20:41;;;;;;;7.63;6.93;;;;;;;25.80;51.55;100197.11;257209;1095;114300;-72
2021/07/18 17:25:44;;;;;;;6.75;6.15;;;;;;;25.80;51.21;100201.72;256766;1096;114283;-72
2021/07/18 17:30:46;;;;;;;8.03;7.43;;;;;;;25.71;51.55;100201.35;256932;1096;114197;-74
2021/07/18 17:35:48;;;;;;;6.85;6.25;;;;;;;25.61;51.63;100204.77;257700;1097;114246;-74
2021/07/18 17:40:51;;;;;;;6.70;6.10;;;;;;;25.46;51.85;100207.33;257242;1095;114199;-75
2021/07/18 17:45:56;;;;;;;7.53;6.95;;;;;;;25.43;52.28;100210.54;257620;1096;113379;-75
2021/07/18 17:50:58;;;;;;;7.53;6.83;;;;;;;25.40;52.72;100208.38;257648;1095;114256;-73
2021/07/18 17:56:01;;;;;;;8.45;7.65;;;;;;;25.34;53.23;100195.84;257568;1094;114074;-72
2021/07/18 18:01:05;;;;;;;7.35;6.75;;;;;;;25.16;55.61;100195.14;258896;1096;115172;-76
2021/07/18 18:06:10;;;;;;;8.30;7.68;;;;;;;25.04;56.56;100205.23;257176;1096;114388;-76
2021/07/18 18:11:12;;;;;;;10.55;9.55;;;;;;;24.97;56.50;100204.63;257343;1095;114689;-73
2021/07/18 18:16:15;;;;;;;7.23;6.67;;;;;;;24.88;57.04;100189.91;256004;1096;224738;-61
2021/07/18 18:21:18;;;;;;;9.83;8.15;;;;;;;24.74;57.83;100200.30;256788;1096;172185;-76
2021/07/18 18:26:20;;;;;;;7.73;6.93;;;;;;;24.59;58.17;100202.80;256688;1096;115237;-75
2021/07/18 18:31:23;;;;;;;7.85;7.25;;;;;;;24.49;58.89;100192.66;256517;1096;115142;-75
2021/07/18 18:36:25;;;;;;;8.85;8.03;;;;;;;24.37;59.68;100197.33;257903;1095;114336;-78
2021/07/18 18:41:28;;;;;;;9.98;7.73;;;;;;;24.17;61.07;100195.14;257092;1096;114994;-73
2021/07/18 18:46:30;;;;;;;8.45;7.75;;;;;;;24.02;61.69;100203.83;256889;1095;114880;-73
2021/07/18 18:51:32;;;;;;;7.85;7.25;;;;;;;23.96;61.96;100194.03;256714;1095;114502;-75
2021/07/18 18:56:37;;;;;;;8.65;7.93;;;;;;;23.87;62.09;100196.33;255769;1096;115700;-71
2021/07/18 19:01:39;;;;;;;8.33;7.53;;;;;;;23.82;62.51;100198.92;255996;1096;114474;-76
2021/07/18 19:06:43;;;;;;;8.85;7.85;;;;;;;23.82;62.83;100203.51;256580;1096;114920;-73
2021/07/18 19:11:47;;;;;;;9.28;8.33;;;;;;;23.74;62.87;100204.73;256468;1096;114756;-75
2021/07/18 19:16:52;;;;;;;9.80;8.90;;;;;;;23.63;63.50;100201.00;256093;1096;114282;-72
2021/07/18 19:21:57;;;;;;;12.43;11.23;;;;;;;23.46;63.72;100200.17;257352;1095;114345;-73
2021/07/18 19:27:00;;;;;;;9.05;8.13;;;;;;;23.32;63.67;100209.61;256148;1096;114855;-73
2021/07/18 19:32:03;;;;;;;8.98;8.18;;;;;;;23.09;65.19;100205.98;257104;1096;114526;-72
2021/07/18 19:37:07;;;;;;;8.73;7.83;;;;;;;22.95;65.50;100212.69;257427;1096;114373;-76
2021/07/18 19:42:09;;;;;;;;;;;;;;;22.96;65.17;100209.75;257540;1095;114574;-72
2021/07/18 19:47:12;;;;;;;10.25;9.25;;;;;;;23.00;65.46;100207.39;258452;1095;104305;-72
2021/07/18 19:52:14;;;;;;;9.23;8.43;;;;;;;22.99;65.40;100203.88;256230;1095;115615;-72
2021/07/18 19:57:17;;;;;;;9.03;8.13;;;;;;;22.92;65.87;100221.25;256210;1096;114471;-73
2021/07/18 20:02:20;;;;;;;10.08;9.08;;;;;;;22.85;65.60;100225.91;255746;1096;114923;-72
2021/07/18 20:07:22;;;;;;;9.25;8.35;;;;;;;22.79;65.25;100238.48;256088;1095;114640;-73
2021/07/18 20:12:25;;;;;;;9.23;8.38;;;;;;;22.87;65.51;100234.59;255935;1096;114363;-76
2021/07/18 20:17:27;;;;;;;8.83;7.93;;;;;;;22.72;66.86;100233.20;256564;1096;114897;-71
2021/07/18 20:22:30;;;;;;;9.38;8.40;;;;;;;22.68;67.20;100242.82;256105;1096;115167;-72
2021/07/18 20:27:33;;;;;;;9.53;8.63;;;;;;;22.74;66.77;100236.50;254591;1096;1603497;-75
2021/07/18 20:32:36;;;;;;;9.13;8.27;;;;;;;22.68;67.41;100242.00;257850;1096;115364;-74
2021/07/18 20:37:38;;;;;;;10.10;9.10;;;;;;;22.58;68.34;100239.89;258781;1095;114344;-76
2021/07/18 20:42:41;;;;;;;10.78;9.68;;;;;;;22.57;67.32;100240.14;258837;1096;114905;-72
2021/07/18 20:47:43;;;;;;;10.55;9.63;;;;;;;22.66;66.58;100254.88;258334;1095;114776;-72
2021/07/18 20:52:48;;;;;;;10.00;9.03;;;;;;;22.61;66.64;100263.67;260451;1094;116057;-72
2021/07/18 20:57:50;;;;;;;12.18;9.80;;;;;;;22.62;66.67;100276.08;257597;1095;115278;-71
2021/07/18 21:02:53;;;;;;;10.53;9.35;;;;;;;22.54;67.64;100276.44;257294;1096;114999;-70
2021/07/18 21:07:55;;;;;;;12.43;11.15;;;;;;;22.63;66.80;100282.31;256883;1096;115318;-71
2021/07/18 21:12:57;;;;;;;8.20;7.40;;;;;;;22.75;65.31;100275.85;258532;1096;114996;-72
2021/07/18 21:18:00;;;;;;;7.98;7.18;;;;;;;22.88;64.30;100285.55;262591;1096;114473;-72
2021/07/18 21:23:06;;;;;;;6.18;5.68;;;;;;;22.86;63.85;100286.83;263290;1095;114496;-73
2021/07/18 21:28:15;;;;;;;7.33;5.98;;;;;;;22.82;63.71;100291.91;263147;1096;114411;-72
2021/07/18 21:33:24;;;;;;;5.30;4.80;;;;;;;22.72;64.31;100291.66;263204;1096;114876;-71
2021/07/18 21:38:26;;;;;;;5.40;4.90;;;;;;;22.58;65.01;100293.77;263216;1095;114344;-72
2021/07/18 21:43:28;;;;;;;6.30;5.40;;;;;;;22.53;65.52;100300.92;263135;1095;114801;-71
2021/07/18 21:48:31;;;;;;;6.38;5.50;;;;;;;22.60;65.43;100297.06;263178;1096;114596;-72
2021/07/18 21:53:33;;;;;;;5.50;4.95;;;;;;;22.46;65.37;100298.33;263200;1095;114381;-71
2021/07/18 21:58:35;;;;;;;9.23;6.80;;;;;;;22.41;65.83;100312.50;263227;1095;114267;-73
2021/07/18 22:03:38;;;;;;;6.65;4.93;;;;;;;22.40;65.70;100327.03;262996;1095;114497;-72
2021/07/18 22:08:40;;;;;;;8.37;4.50;;;;;;;22.19;66.52;100325.69;263116;1096;114470;-73
2021/07/18 22:13:44;;;;;;;4.73;4.28;;;;;;;22.21;66.59;100322.78;263175;1096;114760;-71
2021/07/18 22:18:46;;;;;;;5.03;3.93;;;;;;;22.14;67.03;100328.27;263265;1095;114523;-72
2021/07/18 22:23:49;;;;;;;5.28;3.68;;;;;;;22.23;66.94;100334.97;263083;1096;114502;-73
2021/07/18 22:28:54;;;;;;;4.10;3.43;;;;;;;22.16;67.00;100342.33;263253;1096;114638;-72
2021/07/18 22:34:03;;;;;;;5.95;3.50;;;;;;;22.08;67.58;100342.63;263171;1096;114723;-73
2021/07/18 22:39:11;;;;;;;6.53;3.15;;;;;;;22.01;67.88;100344.59;263015;1099;114375;-74
2021/07/18 22:44:17;;;;;;;4.24;3.00;;;;;;;21.96;67.98;100347.13;263163;1096;114513;-72
2021/07/18 22:49:22;;;;;;;5.35;3.18;;;;;;;22.05;68.71;100344.95;263302;1095;115101;-73
2021/07/18 22:54:27;;;;;;;5.00;3.03;;;;;;;22.12;68.03;100351.06;263180;1096;113297;-72
2021/07/18 22:59:37;;;;;;;4.23;3.20;;;;;;;22.10;68.63;100355.84;263200;1096;114269;-75
2021/07/18 23:05:00;;;;;;;3.05;2.50;;;;;;;21.99;69.01;100368.20;263304;1096;114152;-72
2021/07/18 23:10:06;;;;;;;3.43;2.55;;;;;;;21.93;69.15;100363.75;263285;1095;114582;-73
2021/07/18 23:15:25;;;;;;;3.83;2.40;;;;;;;21.83;69.73;100360.78;263008;1096;113545;-71
2021/07/18 23:20:30;;;;;;;3.68;2.73;;;;;;;21.78;70.17;100366.84;263317;1096;113891;-73
2021/07/18 23:31:07;;;;;;;4.70;2.40;;;;;;;21.62;70.00;100365.61;261819;1098;114065;-72
2021/07/18 23:36:09;;;;;;;3.95;2.50;;;;;;;21.56;69.87;100363.80;262701;1099;113658;-72
2021/07/18 23:41:18;;;;;;;3.08;2.23;;;;;;;21.42;70.43;100375.79;263149;1099;114921;-73
2021/07/18 23:46:24;;;;;;;3.38;2.43;;;;;;;21.34;71.15;100376.06;263188;1097;114396;-72
2021/07/18 23:51:26;;;;;;;5.43;2.50;;;;;;;21.23;70.38;100369.55;263150;1099;214757;-72